sensor_id;sensor_type;location;lat;lon;timestamp;temperature;humidity
52531;DHT22;38441;52.894;6.040;2023-07-20T02:05:49;14.30;99.90
52531;DHT22;38441;52.894;6.040;2023-07-20T02:15:03;13.20;99.90
52531;DHT22;38441;52.894;6.040;2023-07-20T02:17:45;13.20;99.90
52531;DHT22;38441;52.894;6.040;2023-07-20T02:20:47;15.50;99.90
52531;DHT22;38441;52.894;6.040;2023-07-20T02:23:28;13.40;99.90
52531;DHT22;38441;52.894;6.040;2023-07-20T02:32:09;14.10;99.90
52531;DHT22;38441;52.894;6.040;2023-07-20T02:34:55;15.30;99.90
52531;DHT22;38441;52.894;6.040;2023-07-20T02:37:33;12.90;99.90
52531;DHT22;38441;52.894;6.040;2023-07-20T02:39:59;14.80;99.90
52531;DHT22;38441;52.894;6.040;2023-07-20T02:42:34;14.20;99.90
52531;DHT22;38441;52.894;6.040;2023-07-20T02:45:02;14.50;99.90
52531;DHT22;38441;52.894;6.040;2023-07-20T02:47:34;14.60;99.90
52531;DHT22;38441;52.894;6.040;2023-07-20T02:49:59;15.10;99.90
52531;DHT22;38441;52.894;6.040;2023-07-20T02:52:27;15.50;99.90
52531;DHT22;38441;52.894;6.040;2023-07-20T02:55:05;12.70;99.90
52531;DHT22;38441;52.894;6.040;2023-07-20T02:57:50;14.90;99.90
52531;DHT22;38441;52.894;6.040;2023-07-20T03:00:42;14.80;99.90
52531;DHT22;38441;52.894;6.040;2023-07-20T03:06:56;14.90;99.90
52531;DHT22;38441;52.894;6.040;2023-07-20T03:09:25;14.30;99.90
52531;DHT22;38441;52.894;6.040;2023-07-20T03:12:00;14.90;99.90
52531;DHT22;38441;52.894;6.040;2023-07-20T03:14:28;15.00;99.90
52531;DHT22;38441;52.894;6.040;2023-07-20T03:17:04;14.20;99.90
52531;DHT22;38441;52.894;6.040;2023-07-20T03:19:45;13.40;99.90
52531;DHT22;38441;52.894;6.040;2023-07-20T03:22:13;15.50;99.90
52531;DHT22;38441;52.894;6.040;2023-07-20T03:27:42;14.30;99.90
52531;DHT22;38441;52.894;6.040;2023-07-20T03:30:08;14.30;99.90
52531;DHT22;38441;52.894;6.040;2023-07-20T03:32:36;15.40;99.90
52531;DHT22;38441;52.894;6.040;2023-07-20T03:35:04;12.60;99.90
52531;DHT22;38441;52.894;6.040;2023-07-20T03:37:33;13.70;99.90
52531;DHT22;38441;52.894;6.040;2023-07-20T03:40:04;13.90;99.90
52531;DHT22;38441;52.894;6.040;2023-07-20T03:42:33;13.40;99.90
52531;DHT22;38441;52.894;6.040;2023-07-20T03:45:00;14.30;99.90
52531;DHT22;38441;52.894;6.040;2023-07-20T03:47:38;15.20;99.90
52531;DHT22;38441;52.894;6.040;2023-07-20T03:50:04;13.80;99.90
52531;DHT22;38441;52.894;6.040;2023-07-20T03:52:31;13.30;99.90
52531;DHT22;38441;52.894;6.040;2023-07-20T03:54:56;14.10;99.90
52531;DHT22;38441;52.894;6.040;2023-07-20T03:57:22;15.70;99.90
52531;DHT22;38441;52.894;6.040;2023-07-20T03:59:48;14.70;99.90
52531;DHT22;38441;52.894;6.040;2023-07-20T04:02:14;14.00;99.90
52531;DHT22;38441;52.894;6.040;2023-07-20T04:04:42;15.00;99.90
52531;DHT22;38441;52.894;6.040;2023-07-20T04:07:07;14.30;99.90
52531;DHT22;38441;52.894;6.040;2023-07-20T04:09:33;13.90;99.90
52531;DHT22;38441;52.894;6.040;2023-07-20T04:12:01;13.80;99.90
52531;DHT22;38441;52.894;6.040;2023-07-20T04:14:26;14.30;99.90
52531;DHT22;38441;52.894;6.040;2023-07-20T04:16:52;13.70;99.90
52531;DHT22;38441;52.894;6.040;2023-07-20T04:19:18;14.60;99.90
52531;DHT22;38441;52.894;6.040;2023-07-20T04:21:43;13.80;99.90
52531;DHT22;38441;52.894;6.040;2023-07-20T04:24:09;14.10;99.90
52531;DHT22;38441;52.894;6.040;2023-07-20T04:26:35;14.20;99.90
52531;DHT22;38441;52.894;6.040;2023-07-20T04:29:01;15.40;99.90
52531;DHT22;38441;52.894;6.040;2023-07-20T04:31:26;15.10;99.90
52531;DHT22;38441;52.894;6.040;2023-07-20T04:33:52;14.90;99.90
52531;DHT22;38441;52.894;6.040;2023-07-20T04:36:18;14.00;99.90
52531;DHT22;38441;52.894;6.040;2023-07-20T04:38:48;14.00;99.90
52531;DHT22;38441;52.894;6.040;2023-07-20T04:41:13;14.00;99.90
52531;DHT22;38441;52.894;6.040;2023-07-20T04:43:44;14.80;99.90
52531;DHT22;38441;52.894;6.040;2023-07-20T04:46:10;15.20;99.90
52531;DHT22;38441;52.894;6.040;2023-07-20T04:48:36;14.10;99.90
52531;DHT22;38441;52.894;6.040;2023-07-20T04:51:02;14.00;99.90
52531;DHT22;38441;52.894;6.040;2023-07-20T04:53:28;13.10;99.90
52531;DHT22;38441;52.894;6.040;2023-07-20T04:55:54;14.30;99.90
52531;DHT22;38441;52.894;6.040;2023-07-20T04:58:21;14.00;99.90
52531;DHT22;38441;52.894;6.040;2023-07-20T05:00:51;15.00;99.90
52531;DHT22;38441;52.894;6.040;2023-07-20T05:03:17;14.20;99.90
52531;DHT22;38441;52.894;6.040;2023-07-20T05:05:43;14.80;99.90
52531;DHT22;38441;52.894;6.040;2023-07-20T05:08:09;14.20;99.90
52531;DHT22;38441;52.894;6.040;2023-07-20T05:10:35;14.10;99.90
52531;DHT22;38441;52.894;6.040;2023-07-20T05:13:00;14.10;99.90
52531;DHT22;38441;52.894;6.040;2023-07-20T05:15:28;14.30;99.90
52531;DHT22;38441;52.894;6.040;2023-07-20T05:17:54;14.30;99.90
52531;DHT22;38441;52.894;6.040;2023-07-20T05:20:20;14.20;99.90
52531;DHT22;38441;52.894;6.040;2023-07-20T05:22:45;14.90;99.90
52531;DHT22;38441;52.894;6.040;2023-07-20T05:25:13;14.30;99.90
52531;DHT22;38441;52.894;6.040;2023-07-20T05:27:40;16.00;99.90
52531;DHT22;38441;52.894;6.040;2023-07-20T05:30:06;15.10;99.90
52531;DHT22;38441;52.894;6.040;2023-07-20T05:32:35;13.70;99.90
52531;DHT22;38441;52.894;6.040;2023-07-20T05:35:01;14.70;99.90
52531;DHT22;38441;52.894;6.040;2023-07-20T05:37:26;13.70;99.90
52531;DHT22;38441;52.894;6.040;2023-07-20T05:39:52;14.60;99.90
52531;DHT22;38441;52.894;6.040;2023-07-20T05:42:32;14.50;99.90
52531;DHT22;38441;52.894;6.040;2023-07-20T05:45:18;17.60;99.90
52531;DHT22;38441;52.894;6.040;2023-07-20T05:47:44;14.80;99.90
52531;DHT22;38441;52.894;6.040;2023-07-20T05:50:10;14.70;99.90
52531;DHT22;38441;52.894;6.040;2023-07-20T05:52:36;14.50;99.90
52531;DHT22;38441;52.894;6.040;2023-07-20T05:55:04;15.50;99.90
52531;DHT22;38441;52.894;6.040;2023-07-20T05:57:36;14.00;99.90
52531;DHT22;38441;52.894;6.040;2023-07-20T06:00:08;14.20;99.90
52531;DHT22;38441;52.894;6.040;2023-07-20T06:02:38;13.90;99.90
52531;DHT22;38441;52.894;6.040;2023-07-20T06:05:04;15.50;99.90
52531;DHT22;38441;52.894;6.040;2023-07-20T06:07:30;14.90;99.90
52531;DHT22;38441;52.894;6.040;2023-07-20T06:09:58;13.40;99.90
52531;DHT22;38441;52.894;6.040;2023-07-20T06:12:26;15.10;99.90
52531;DHT22;38441;52.894;6.040;2023-07-20T06:15:23;14.80;99.90
52531;DHT22;38441;52.894;6.040;2023-07-20T06:17:59;13.60;99.90
52531;DHT22;38441;52.894;6.040;2023-07-20T06:20:37;15.80;99.90
52531;DHT22;38441;52.894;6.040;2023-07-20T06:23:13;15.20;99.90
52531;DHT22;38441;52.894;6.040;2023-07-20T06:26:18;14.20;99.90
52531;DHT22;38441;52.894;6.040;2023-07-20T06:29:08;16.40;99.90
52531;DHT22;38441;52.894;6.040;2023-07-20T06:32:19;13.90;99.90
52531;DHT22;38441;52.894;6.040;2023-07-20T06:34:44;16.50;99.90
52531;DHT22;38441;52.894;6.040;2023-07-20T06:37:10;17.40;99.90
52531;DHT22;38441;52.894;6.040;2023-07-20T06:39:48;16.10;99.90
52531;DHT22;38441;52.894;6.040;2023-07-20T06:42:14;16.30;99.90
52531;DHT22;38441;52.894;6.040;2023-07-20T06:44:42;17.00;99.90
52531;DHT22;38441;52.894;6.040;2023-07-20T06:47:31;16.40;99.90
52531;DHT22;38441;52.894;6.040;2023-07-20T06:49:56;16.20;99.90
52531;DHT22;38441;52.894;6.040;2023-07-20T06:52:25;16.40;99.90
52531;DHT22;38441;52.894;6.040;2023-07-20T06:55:01;18.20;99.90
52531;DHT22;38441;52.894;6.040;2023-07-20T06:57:44;16.30;99.90
52531;DHT22;38441;52.894;6.040;2023-07-20T07:00:13;16.20;99.90
52531;DHT22;38441;52.894;6.040;2023-07-20T07:02:46;15.90;99.90
52531;DHT22;38441;52.894;6.040;2023-07-20T07:05:38;17.70;99.90
52531;DHT22;38441;52.894;6.040;2023-07-20T07:08:12;16.00;99.90
52531;DHT22;38441;52.894;6.040;2023-07-20T07:19:59;15.70;99.90
52531;DHT22;38441;52.894;6.040;2023-07-20T15:53:16;24.40;99.90
52531;DHT22;38441;52.894;6.040;2023-07-20T15:58:51;23.50;99.90
52531;DHT22;38441;52.894;6.040;2023-07-20T16:01:19;24.70;99.90
52531;DHT22;38441;52.894;6.040;2023-07-20T16:03:49;23.30;99.90
52531;DHT22;38441;52.894;6.040;2023-07-20T16:06:20;24.10;99.90
52531;DHT22;38441;52.894;6.040;2023-07-20T16:08:49;24.30;99.90
52531;DHT22;38441;52.894;6.040;2023-07-20T16:37:15;21.30;99.90
52531;DHT22;38441;52.894;6.040;2023-07-20T16:39:48;22.50;99.90
52531;DHT22;38441;52.894;6.040;2023-07-20T16:45:39;22.80;99.90
52531;DHT22;38441;52.894;6.040;2023-07-20T16:48:07;22.20;99.90
52531;DHT22;38441;52.894;6.040;2023-07-20T16:50:40;23.10;99.90
52531;DHT22;38441;52.894;6.040;2023-07-20T16:53:26;22.20;99.90
52531;DHT22;38441;52.894;6.040;2023-07-20T17:10:00;20.70;99.90
52531;DHT22;38441;52.894;6.040;2023-07-20T17:19:28;21.10;99.90
52531;DHT22;38441;52.894;6.040;2023-07-20T18:45:43;21.00;99.90
52531;DHT22;38441;52.894;6.040;2023-07-20T18:48:11;18.70;99.90
52531;DHT22;38441;52.894;6.040;2023-07-20T18:50:37;19.30;99.90
52531;DHT22;38441;52.894;6.040;2023-07-20T18:53:03;18.80;99.90
52531;DHT22;38441;52.894;6.040;2023-07-20T18:55:32;16.60;99.90
52531;DHT22;38441;52.894;6.040;2023-07-20T18:58:07;20.20;99.90
52531;DHT22;38441;52.894;6.040;2023-07-20T19:00:38;20.00;99.90
52531;DHT22;38441;52.894;6.040;2023-07-20T19:03:07;19.50;99.90
52531;DHT22;38441;52.894;6.040;2023-07-20T19:05:35;21.80;99.90
52531;DHT22;38441;52.894;6.040;2023-07-20T19:08:24;17.80;99.90
52531;DHT22;38441;52.894;6.040;2023-07-20T19:11:00;19.50;99.90
52531;DHT22;38441;52.894;6.040;2023-07-20T19:16:28;20.30;99.90
52531;DHT22;38441;52.894;6.040;2023-07-20T19:19:30;21.40;99.90
52531;DHT22;38441;52.894;6.040;2023-07-20T19:25:48;20.30;99.90
52531;DHT22;38441;52.894;6.040;2023-07-20T19:33:17;17.50;99.90
52531;DHT22;38441;52.894;6.040;2023-07-20T19:35:48;18.70;99.90
52531;DHT22;38441;52.894;6.040;2023-07-20T20:40:46;17.10;99.90
52531;DHT22;38441;52.894;6.040;2023-07-20T20:50:27;16.20;99.90
52531;DHT22;38441;52.894;6.040;2023-07-20T20:53:31;18.40;99.90
